Decoded Metar for KDYB ( in ) (IATA:) | Meteo·Mobile Aviation Weather
aviador You're here:

KDYB Decoded Metar

in
Report Time2018-12-15 15:35:00
UTC Time2018-12-15 15:35:58
Flight Rules ifr IFR
Wind230° at 03 kt
W.Decomp.*RWY 24: 3.0 kt HW 0.5 kt LCW
W.Rank230° ranks 14
Current wind is below 230° avg. (4.9)
Visibility9999 m
Phenomena:N/A
Clouds:Broken 008 Hf
Broken 012 Hf
Expected CloudBase > 400 ft AGL from Temp-Dew spread
Ceiling800 ft
Temp17°C
Dew Point16°C (94% RH)
QNH1016 hPa
Raw Report
METAR KDYB 151535Z AUTO 23003KT 10SM BKN008 BKN012 17/16 A3001 RMK
AO1=

Extra information for KDYB:More info

Social comments